createdAt,value
2018-04-15T00:00:58.269Z,1013.20
2018-04-15T00:01:58.217Z,1013.23
2018-04-15T00:02:58.177Z,1013.22
2018-04-15T00:03:58.136Z,1013.15
2018-04-15T00:04:58.096Z,1013.17
2018-04-15T00:05:58.055Z,1013.14
2018-04-15T00:06:58.009Z,1013.13
2018-04-15T00:07:57.969Z,1013.13
2018-04-15T00:08:57.926Z,1013.14
2018-04-15T00:09:57.886Z,1013.14
2018-04-15T00:10:57.842Z,1013.13
2018-04-15T00:11:57.806Z,1013.12
2018-04-15T00:12:57.761Z,1013.11
2018-04-15T00:13:57.715Z,1013.08
2018-04-15T00:14:57.675Z,1013.08
2018-04-15T00:15:57.633Z,1013.07
2018-04-15T00:16:57.593Z,1013.11
2018-04-15T00:17:57.549Z,1013.08
2018-04-15T00:18:57.508Z,1013.10
2018-04-15T00:19:57.468Z,1013.14
2018-04-15T00:20:57.425Z,1013.11
2018-04-15T00:21:57.383Z,1013.11
2018-04-15T00:22:57.340Z,1013.07
2018-04-15T00:23:57.299Z,1013.08
2018-04-15T00:24:57.255Z,1013.09
2018-04-15T00:25:57.214Z,1013.07
2018-04-15T00:26:57.178Z,1013.03
2018-04-15T00:27:57.133Z,1013.02
2018-04-15T00:28:57.090Z,1013.03
2018-04-15T00:29:57.047Z,1013.02
2018-04-15T00:30:57.010Z,1013.00
2018-04-15T00:31:56.966Z,1013.02
2018-04-15T00:32:56.923Z,1013.01
2018-04-15T00:33:56.883Z,1012.97
2018-04-15T00:34:56.844Z,1012.98
2018-04-15T00:35:56.800Z,1013.00
2018-04-15T00:36:56.762Z,1012.95
2018-04-15T00:37:56.713Z,1012.96
2018-04-15T00:38:56.674Z,1012.96
2018-04-15T00:39:56.630Z,1012.92
2018-04-15T00:40:56.589Z,1012.92
2018-04-15T00:41:56.552Z,1012.92
2018-04-15T00:42:56.504Z,1012.88
2018-04-15T00:43:56.467Z,1012.88
2018-04-15T00:44:56.420Z,1012.86
2018-04-15T00:45:56.377Z,1012.82
2018-04-15T00:46:56.338Z,1012.81
2018-04-15T00:47:56.296Z,1012.80
2018-04-15T00:48:56.251Z,1012.79
2018-04-15T00:49:56.208Z,1012.76
2018-04-15T00:50:56.170Z,1012.83
2018-04-15T00:51:56.125Z,1012.82
2018-04-15T00:52:56.086Z,1012.76
2018-04-15T00:53:56.042Z,1012.80
2018-04-15T00:54:55.999Z,1012.82
2018-04-15T00:55:55.960Z,1012.80
2018-04-15T00:56:55.921Z,1012.78
2018-04-15T00:57:55.874Z,1012.78
2018-04-15T00:58:55.842Z,1012.79
2018-04-15T00:59:55.792Z,1012.74
2018-04-15T01:00:55.750Z,1012.73
2018-04-15T01:01:55.707Z,1012.73
2018-04-15T01:02:55.665Z,1012.68
2018-04-15T01:03:55.622Z,1012.71
2018-04-15T01:04:55.583Z,1012.68
2018-04-15T01:05:55.542Z,1012.69
2018-04-15T01:06:55.497Z,1012.71
2018-04-15T01:07:55.456Z,1012.65
2018-04-15T01:08:55.412Z,1012.65
2018-04-15T01:09:55.370Z,1012.65
2018-04-15T01:10:55.329Z,1012.61
2018-04-15T01:11:55.293Z,1012.57
2018-04-15T01:12:55.251Z,1012.57
2018-04-15T01:13:55.203Z,1012.54
2018-04-15T01:14:55.162Z,1012.53
2018-04-15T01:15:55.123Z,1012.54
2018-04-15T01:16:55.079Z,1012.54
2018-04-15T01:17:55.036Z,1012.50
2018-04-15T01:18:55.004Z,1012.48
2018-04-15T01:19:54.951Z,1012.44
2018-04-15T01:20:54.909Z,1012.45
2018-04-15T01:21:54.868Z,1012.44
2018-04-15T01:22:54.826Z,1012.42
2018-04-15T01:23:54.783Z,1012.44
2018-04-15T01:24:54.746Z,1012.39
2018-04-15T01:25:54.698Z,1012.41
2018-04-15T01:26:54.659Z,1012.37
2018-04-15T01:27:54.634Z,1012.34
2018-04-15T01:28:54.571Z,1012.36
2018-04-15T01:29:54.530Z,1012.38
2018-04-15T01:30:54.487Z,1012.31
2018-04-15T01:31:54.446Z,1012.33
2018-04-15T01:32:54.404Z,1012.33
2018-04-15T01:33:54.363Z,1012.31
2018-04-15T01:34:54.323Z,1012.28
2018-04-15T01:35:54.281Z,1012.27
2018-04-15T01:36:54.268Z,1012.27
2018-04-15T01:38:54.154Z,1012.28
2018-04-15T01:39:54.108Z,1012.27
2018-04-15T01:40:54.066Z,1012.27
2018-04-15T01:41:54.025Z,1012.26
2018-04-15T01:42:53.985Z,1012.26
2018-04-15T01:43:53.939Z,1012.26
2018-04-15T01:44:53.898Z,1012.24
2018-04-15T01:45:53.857Z,1012.24
2018-04-15T01:46:53.812Z,1012.22
2018-04-15T01:47:53.770Z,1012.23
2018-04-15T01:48:53.728Z,1012.21
2018-04-15T01:49:53.685Z,1012.21
2018-04-15T01:50:53.651Z,1012.24
2018-04-15T01:51:53.602Z,1012.20
2018-04-15T01:52:53.558Z,1012.26
2018-04-15T01:53:53.515Z,1012.17
2018-04-15T01:54:53.473Z,1012.20
2018-04-15T01:55:53.432Z,1012.20
2018-04-15T01:56:53.391Z,1012.19
2018-04-15T01:57:53.347Z,1012.20
2018-04-15T01:58:53.305Z,1012.12
2018-04-15T01:59:53.263Z,1012.20
2018-04-15T02:00:53.222Z,1012.17
2018-04-15T02:01:53.181Z,1012.17
2018-04-15T02:02:53.141Z,1012.15
2018-04-15T02:03:53.095Z,1012.15
2018-04-15T02:04:53.057Z,1012.12
2018-04-15T02:05:53.009Z,1012.15
2018-04-15T02:06:52.968Z,1012.11
2018-04-15T02:07:52.926Z,1012.11
2018-04-15T02:08:52.888Z,1012.13
2018-04-15T02:09:52.842Z,1012.09
2018-04-15T02:10:52.798Z,1012.12
2018-04-15T02:11:52.759Z,1012.07
2018-04-15T02:12:52.717Z,1012.08
2018-04-15T02:13:52.672Z,1012.04
2018-04-15T02:14:52.633Z,1012.08
2018-04-15T02:15:52.589Z,1012.06
2018-04-15T02:16:52.547Z,1012.02
2018-04-15T02:17:52.505Z,1012.05
2018-04-15T02:18:52.464Z,1012.06
2018-04-15T02:19:52.421Z,1012.04
2018-04-15T02:20:52.378Z,1011.99
2018-04-15T02:21:52.336Z,1011.98
2018-04-15T02:22:52.293Z,1011.94
2018-04-15T02:23:52.251Z,1011.93
2018-04-15T02:24:52.223Z,1011.93
2018-04-15T02:25:52.167Z,1011.92
2018-04-15T02:26:52.125Z,1011.92
2018-04-15T02:27:52.088Z,1011.94
2018-04-15T02:28:52.043Z,1011.95
2018-04-15T02:29:51.998Z,1011.94
2018-04-15T02:30:51.957Z,1011.94
2018-04-15T02:31:51.913Z,1011.91
2018-04-15T02:32:51.872Z,1011.91
2018-04-15T02:33:51.828Z,1011.91
2018-04-15T02:34:51.786Z,1011.93
2018-04-15T02:35:51.747Z,1011.91
2018-04-15T02:36:51.701Z,1011.90
2018-04-15T02:37:51.673Z,1011.93
2018-04-15T02:38:51.619Z,1011.92
2018-04-15T02:39:51.575Z,1011.90
2018-04-15T02:40:51.532Z,1011.90
2018-04-15T02:41:51.492Z,1011.86
2018-04-15T02:42:51.449Z,1011.85
2018-04-15T02:43:51.406Z,1011.89
2018-04-15T02:44:51.370Z,1011.89
2018-04-15T02:45:51.324Z,1011.93
2018-04-15T02:46:51.281Z,1011.91
2018-04-15T02:47:51.240Z,1011.93
2018-04-15T02:48:51.194Z,1011.91
2018-04-15T02:49:51.155Z,1011.94
2018-04-15T02:50:51.121Z,1011.94
2018-04-15T02:51:51.071Z,1011.92
2018-04-15T02:52:51.031Z,1011.95
2018-04-15T02:53:50.983Z,1011.91
2018-04-15T02:54:50.942Z,1011.89
2018-04-15T02:55:50.901Z,1011.88
2018-04-15T02:56:50.856Z,1011.84
2018-04-15T02:57:50.815Z,1011.81
2018-04-15T02:58:50.776Z,1011.81
2018-04-15T02:59:50.730Z,1011.78
2018-04-15T03:00:50.693Z,1011.81
2018-04-15T03:01:50.649Z,1011.82
2018-04-15T03:02:50.603Z,1011.77
2018-04-15T03:03:50.567Z,1011.81
2018-04-15T03:04:50.521Z,1011.79
2018-04-15T03:05:50.476Z,1011.75
2018-04-15T03:06:50.436Z,1011.76
2018-04-15T03:07:50.394Z,1011.75
2018-04-15T03:08:50.349Z,1011.69
2018-04-15T03:09:50.307Z,1011.67
2018-04-15T03:10:50.266Z,1011.63
2018-04-15T03:11:50.224Z,1011.59
2018-04-15T03:12:50.182Z,1011.56
2018-04-15T03:13:50.144Z,1011.53
2018-04-15T03:14:50.096Z,1011.66
2018-04-15T03:15:50.056Z,1011.69
2018-04-15T03:16:50.011Z,1011.64
2018-04-15T03:17:49.971Z,1011.63
2018-04-15T03:18:49.928Z,1011.63
2018-04-15T03:19:49.886Z,1011.67
2018-04-15T03:20:49.844Z,1011.64
2018-04-15T03:21:49.800Z,1011.70
2018-04-15T03:22:49.759Z,1011.69
2018-04-15T03:23:49.714Z,1011.66
2018-04-15T03:24:49.677Z,1011.60
2018-04-15T03:25:49.632Z,1011.63
2018-04-15T03:26:49.589Z,1011.64
2018-04-15T03:27:49.552Z,1011.60
2018-04-15T03:28:49.508Z,1011.57
2018-04-15T03:29:49.462Z,1011.57
2018-04-15T03:30:49.421Z,1011.61
2018-04-15T03:31:49.428Z,1011.57
2018-04-15T03:32:49.337Z,1011.53
2018-04-15T03:33:49.292Z,1011.53
2018-04-15T03:34:49.250Z,1011.57
2018-04-15T03:35:49.208Z,1011.59
2018-04-15T03:36:49.167Z,1011.57
2018-04-15T03:37:49.122Z,1011.56
2018-04-15T03:38:49.081Z,1011.57
2018-04-15T03:39:49.039Z,1011.60
2018-04-15T03:40:48.995Z,1011.57
2018-04-15T03:41:48.962Z,1011.58
2018-04-15T03:42:48.912Z,1011.58
2018-04-15T03:43:48.911Z,1011.60
2018-04-15T03:44:48.827Z,1011.60
2018-04-15T03:45:48.785Z,1011.60
2018-04-15T03:46:48.744Z,1011.56
2018-04-15T03:47:48.701Z,1011.61
2018-04-15T03:48:48.657Z,1011.62
2018-04-15T03:49:48.620Z,1011.60
2018-04-15T03:50:48.573Z,1011.60
2018-04-15T03:51:48.535Z,1011.59
2018-04-15T03:52:48.489Z,1011.59
2018-04-15T03:53:48.455Z,1011.58
2018-04-15T03:54:48.405Z,1011.60
2018-04-15T03:55:48.364Z,1011.59
2018-04-15T03:56:48.319Z,1011.57
2018-04-15T03:57:48.279Z,1011.64
2018-04-15T03:58:48.236Z,1011.58
2018-04-15T03:59:48.195Z,1011.55
2018-04-15T04:00:48.149Z,1011.55
2018-04-15T04:01:48.106Z,1011.54
2018-04-15T04:02:48.065Z,1011.56
2018-04-15T04:03:48.022Z,1011.53
2018-04-15T04:04:47.979Z,1011.58
2018-04-15T04:05:47.937Z,1011.56
2018-04-15T04:06:47.895Z,1011.60
2018-04-15T04:07:47.854Z,1011.59
2018-04-15T04:08:47.810Z,1011.61
2018-04-15T04:09:47.804Z,1011.62
2018-04-15T04:10:47.725Z,1011.58
2018-04-15T04:11:47.684Z,1011.56
2018-04-15T04:12:47.640Z,1011.57
2018-04-15T04:13:47.600Z,1011.56
2018-04-15T04:14:47.559Z,1011.56
2018-04-15T04:15:47.514Z,1011.54
2018-04-15T04:16:47.476Z,1011.55
2018-04-15T04:17:47.433Z,1011.55
2018-04-15T04:18:47.388Z,1011.53
2018-04-15T04:19:47.345Z,1011.56
2018-04-15T04:20:47.305Z,1011.58
2018-04-15T04:21:47.258Z,1011.53
2018-04-15T04:22:47.221Z,1011.60
2018-04-15T04:23:47.174Z,1011.57
2018-04-15T04:24:47.132Z,1011.55
2018-04-15T04:25:47.102Z,1011.59
2018-04-15T04:26:47.049Z,1011.58
2018-04-15T04:27:47.005Z,1011.58
2018-04-15T04:28:46.963Z,1011.57
2018-04-15T04:29:46.921Z,1011.64
2018-04-15T04:30:46.877Z,1011.65
2018-04-15T04:31:46.839Z,1011.66
2018-04-15T04:32:46.792Z,1011.73
2018-04-15T04:33:46.747Z,1011.70
2018-04-15T04:34:46.751Z,1011.75
2018-04-15T04:35:46.663Z,1011.74
2018-04-15T04:36:46.622Z,1011.70
2018-04-15T04:37:46.580Z,1011.75
2018-04-15T04:38:46.537Z,1011.73
2018-04-15T04:39:46.498Z,1011.69
2018-04-15T04:40:46.452Z,1011.68
2018-04-15T04:41:46.410Z,1011.65
2018-04-15T04:42:46.371Z,1011.66
2018-04-15T04:43:46.332Z,1011.67
2018-04-15T04:44:46.284Z,1011.60
2018-04-15T04:45:46.240Z,1011.64
2018-04-15T04:46:46.199Z,1011.60
2018-04-15T04:47:46.163Z,1011.57
2018-04-15T04:48:46.119Z,1011.60
2018-04-15T04:49:46.072Z,1011.58
2018-04-15T04:50:46.031Z,1011.59
2018-04-15T04:51:45.989Z,1011.55
2018-04-15T04:52:45.943Z,1011.55
2018-04-15T04:53:45.907Z,1011.54
2018-04-15T04:54:45.861Z,1011.56
2018-04-15T04:55:45.819Z,1011.57
2018-04-15T04:56:45.773Z,1011.57
2018-04-15T04:57:45.731Z,1011.57
2018-04-15T04:58:45.691Z,1011.55
2018-04-15T04:59:45.649Z,1011.54
2018-04-15T05:00:45.605Z,1011.56
2018-04-15T05:01:45.563Z,1011.53
2018-04-15T05:02:45.521Z,1011.51
2018-04-15T05:03:45.475Z,1011.51
2018-04-15T05:04:45.438Z,1011.52
2018-04-15T05:05:45.389Z,1011.53
2018-04-15T05:06:45.347Z,1011.52
2018-04-15T05:07:45.303Z,1011.50
2018-04-15T05:08:45.261Z,1011.49
2018-04-15T05:09:45.221Z,1011.52
2018-04-15T05:10:45.179Z,1011.49
2018-04-15T05:11:45.134Z,1011.45
2018-04-15T05:12:45.093Z,1011.45
2018-04-15T05:13:45.049Z,1011.46
2018-04-15T05:14:45.010Z,1011.46
2018-04-15T05:15:44.964Z,1011.44
2018-04-15T05:16:44.924Z,1011.40
2018-04-15T05:17:44.881Z,1011.38
2018-04-15T05:18:44.838Z,1011.38
2018-04-15T05:19:44.798Z,1011.38
2018-04-15T05:20:44.757Z,1011.39
2018-04-15T05:21:44.918Z,1011.38
2018-04-15T05:22:44.671Z,1011.40
2018-04-15T05:23:44.622Z,1011.42
2018-04-15T05:24:44.581Z,1011.40
2018-04-15T05:25:44.541Z,1011.43
2018-04-15T05:26:44.494Z,1011.44
2018-04-15T05:27:44.451Z,1011.43
2018-04-15T05:28:44.409Z,1011.44
2018-04-15T05:29:44.375Z,1011.42
2018-04-15T05:30:44.331Z,1011.43
2018-04-15T05:31:44.284Z,1011.45
2018-04-15T05:32:44.240Z,1011.45
2018-04-15T05:33:44.201Z,1011.41
2018-04-15T05:34:44.154Z,1011.40
2018-04-15T05:35:44.116Z,1011.43
2018-04-15T05:36:44.083Z,1011.40
2018-04-15T05:37:44.025Z,1011.41
2018-04-15T05:38:43.983Z,1011.37
2018-04-15T05:39:43.938Z,1011.37
2018-04-15T05:40:43.901Z,1011.38
2018-04-15T05:41:43.857Z,1011.34
2018-04-15T05:42:43.814Z,1011.35
2018-04-15T05:43:43.773Z,1011.36
2018-04-15T05:44:43.729Z,1011.38
2018-04-15T05:45:43.685Z,1011.34
2018-04-15T05:46:43.642Z,1011.34
2018-04-15T05:47:43.599Z,1011.34
2018-04-15T05:48:43.556Z,1011.31
2018-04-15T05:49:43.515Z,1011.36
2018-04-15T05:50:43.477Z,1011.36
2018-04-15T05:51:43.430Z,1011.35
2018-04-15T05:52:43.395Z,1011.37
2018-04-15T05:53:43.347Z,1011.38
2018-04-15T05:54:43.304Z,1011.39
2018-04-15T05:55:43.259Z,1011.44
2018-04-15T05:56:43.213Z,1011.41
2018-04-15T05:57:43.176Z,1011.41
2018-04-15T05:58:43.134Z,1011.40
2018-04-15T05:59:43.092Z,1011.37
2018-04-15T06:00:43.043Z,1011.37
2018-04-15T06:01:43.003Z,1011.34
2018-04-15T06:02:42.961Z,1011.33
2018-04-15T06:03:42.924Z,1011.34
2018-04-15T06:04:42.877Z,1011.32
2018-04-15T06:05:42.833Z,1011.33
2018-04-15T06:06:42.791Z,1011.33
2018-04-15T06:07:42.751Z,1011.34
2018-04-15T06:08:42.708Z,1011.31
2018-04-15T06:09:42.663Z,1011.28
2018-04-15T06:10:42.621Z,1011.33
2018-04-15T06:11:42.581Z,1011.27
2018-04-15T06:12:42.536Z,1011.22
2018-04-15T06:13:42.495Z,1011.19
2018-04-15T06:14:42.450Z,1011.16
2018-04-15T06:15:42.409Z,1011.16
2018-04-15T06:16:42.368Z,1011.17
2018-04-15T06:17:42.325Z,1011.18
2018-04-15T06:18:42.281Z,1011.12
2018-04-15T06:19:42.239Z,1011.10
2018-04-15T06:20:42.196Z,1011.11
2018-04-15T06:21:42.155Z,1011.08
2018-04-15T06:22:42.112Z,1011.05
2018-04-15T06:23:42.069Z,1011.10
2018-04-15T06:24:42.028Z,1011.10
2018-04-15T06:25:41.995Z,1011.06
2018-04-15T06:26:41.945Z,1011.09
2018-04-15T06:27:41.902Z,1011.03
2018-04-15T06:28:41.858Z,1011.03
2018-04-15T06:29:41.818Z,1011.02
2018-04-15T06:30:41.773Z,1010.97
2018-04-15T06:31:41.731Z,1010.97
2018-04-15T06:32:41.693Z,1010.96
2018-04-15T06:33:41.648Z,1010.93
2018-04-15T06:34:41.604Z,1010.99
2018-04-15T06:35:41.570Z,1010.96
2018-04-15T06:36:41.525Z,1010.91
2018-04-15T06:37:41.484Z,1010.91
2018-04-15T06:38:41.434Z,1010.92
2018-04-15T06:39:41.394Z,1010.93
2018-04-15T06:40:41.355Z,1010.92
2018-04-15T06:41:41.318Z,1010.92
2018-04-15T06:42:41.268Z,1010.91
2018-04-15T06:43:41.224Z,1010.85
2018-04-15T06:44:41.181Z,1010.84
2018-04-15T06:45:41.139Z,1010.85
2018-04-15T06:46:41.102Z,1010.80
2018-04-15T06:47:41.056Z,1010.80
2018-04-15T06:48:41.015Z,1010.78
2018-04-15T06:49:40.972Z,1010.79
2018-04-15T06:50:40.927Z,1010.76
2018-04-15T06:51:40.887Z,1010.73
2018-04-15T06:52:40.845Z,1010.78
2018-04-15T06:53:40.801Z,1010.73
2018-04-15T06:54:40.762Z,1010.73
2018-04-15T06:55:40.749Z,1010.65
2018-04-15T06:56:40.676Z,1010.70
2018-04-15T06:57:40.635Z,1010.68
2018-04-15T06:58:40.595Z,1010.69
2018-04-15T06:59:40.552Z,1010.66
2018-04-15T07:00:40.511Z,1010.66
2018-04-15T07:01:40.464Z,1010.67
2018-04-15T07:02:40.425Z,1010.68
2018-04-15T07:03:40.382Z,1010.63
2018-04-15T07:04:40.342Z,1010.61
2018-04-15T07:05:40.298Z,1010.63
2018-04-15T07:06:40.255Z,1010.65
2018-04-15T07:07:40.216Z,1010.61
2018-04-15T07:08:40.175Z,1010.57
2018-04-15T07:09:40.178Z,1010.59
2018-04-15T07:10:40.092Z,1010.54
2018-04-15T07:11:40.051Z,1010.53
2018-04-15T07:12:40.011Z,1010.53
2018-04-15T07:13:39.964Z,1010.53
2018-04-15T07:14:39.921Z,1010.54
2018-04-15T07:15:39.881Z,1010.53
2018-04-15T07:16:39.839Z,1010.52
2018-04-15T07:17:39.801Z,1010.51
2018-04-15T07:18:39.755Z,1010.52
2018-04-15T07:19:39.713Z,1010.48
2018-04-15T07:20:39.672Z,1010.49
2018-04-15T07:21:39.673Z,1010.53
2018-04-15T07:22:39.589Z,1010.46
2018-04-15T07:23:39.549Z,1010.49
2018-04-15T07:24:39.508Z,1010.46
2018-04-15T07:25:39.462Z,1010.45
2018-04-15T07:26:39.420Z,1010.42
2018-04-15T07:27:39.382Z,1010.39
2018-04-15T07:28:39.338Z,1010.39
2018-04-15T07:29:39.296Z,1010.33
2018-04-15T07:30:39.253Z,1010.34
2018-04-15T07:31:39.214Z,1010.31
2018-04-15T07:32:39.175Z,1010.33
2018-04-15T07:33:39.134Z,1010.34
2018-04-15T07:34:39.091Z,1010.34
2018-04-15T07:35:39.067Z,1010.32
2018-04-15T07:36:39.041Z,1010.33
2018-04-15T07:37:38.976Z,1010.35
2018-04-15T07:38:38.932Z,1010.35
2018-04-15T07:39:38.900Z,1010.36
2018-04-15T07:40:38.855Z,1010.40
2018-04-15T07:41:38.818Z,1010.42
2018-04-15T07:42:38.781Z,1010.40
2018-04-15T07:43:38.753Z,1010.42
2018-04-15T07:44:38.708Z,1010.37
2018-04-15T07:45:38.663Z,1010.40
2018-04-15T07:46:38.626Z,1010.38
2018-04-15T07:47:38.589Z,1010.42
2018-04-15T07:48:38.554Z,1010.43
2018-04-15T07:49:38.512Z,1010.45
2018-04-15T07:50:38.482Z,1010.40
2018-04-15T07:51:38.440Z,1010.44
2018-04-15T07:52:38.402Z,1010.40
2018-04-15T07:53:38.370Z,1010.39
2018-04-15T07:54:38.332Z,1010.38
2018-04-15T07:55:38.293Z,1010.37
2018-04-15T07:56:38.257Z,1010.33
2018-04-15T07:57:38.220Z,1010.37
2018-04-15T07:58:38.193Z,1010.35
2018-04-15T07:59:38.149Z,1010.35
2018-04-15T08:00:38.115Z,1010.35
2018-04-15T08:01:38.078Z,1010.34
2018-04-15T08:02:38.047Z,1010.34
2018-04-15T08:03:38.011Z,1010.36
2018-04-15T08:04:37.972Z,1010.42
2018-04-15T08:05:38.842Z,1010.43
2018-04-15T08:06:37.901Z,1010.44
2018-04-15T08:07:37.876Z,1010.43
2018-04-15T08:08:37.837Z,1010.47
2018-04-15T08:09:37.798Z,1010.43
2018-04-15T08:10:37.765Z,1010.43
2018-04-15T08:11:37.743Z,1010.43
2018-04-15T08:12:37.692Z,1010.43
2018-04-15T08:13:37.666Z,1010.40
2018-04-15T08:14:37.624Z,1010.36
2018-04-15T08:15:37.592Z,1010.31
2018-04-15T08:16:37.559Z,1010.32
2018-04-15T08:17:37.525Z,1010.28
2018-04-15T08:18:37.485Z,1010.30
2018-04-15T08:19:37.448Z,1010.28
2018-04-15T08:20:37.415Z,1010.33
2018-04-15T08:21:37.385Z,1010.31
2018-04-15T08:22:37.350Z,1010.28
2018-04-15T08:23:37.314Z,1010.29
2018-04-15T08:24:37.276Z,1010.34
2018-04-15T08:25:37.239Z,1010.27
2018-04-15T08:26:37.204Z,1010.31
2018-04-15T08:27:37.174Z,1010.27
2018-04-15T08:28:37.139Z,1010.26
2018-04-15T08:29:37.102Z,1010.24
2018-04-15T08:30:37.069Z,1010.22
2018-04-15T08:31:37.032Z,1010.17
2018-04-15T08:32:36.997Z,1010.20
2018-04-15T08:33:36.969Z,1010.22
2018-04-15T08:34:36.931Z,1010.21
2018-04-15T08:35:36.897Z,1010.20
2018-04-15T08:36:36.859Z,1010.16
2018-04-15T08:37:36.828Z,1010.17
2018-04-15T08:38:36.794Z,1010.15
2018-04-15T08:39:36.756Z,1010.15
2018-04-15T08:40:36.730Z,1010.16
2018-04-15T08:41:36.683Z,1010.15
2018-04-15T08:42:36.652Z,1010.16
2018-04-15T08:43:36.617Z,1010.14
2018-04-15T08:44:36.598Z,1010.14
2018-04-15T08:45:36.550Z,1010.14
2018-04-15T08:46:36.514Z,1010.13
2018-04-15T08:47:36.469Z,1010.13
2018-04-15T08:48:36.432Z,1010.14
2018-04-15T08:49:36.397Z,1010.13
2018-04-15T08:50:36.363Z,1010.10
2018-04-15T08:51:36.328Z,1010.03
2018-04-15T08:52:36.295Z,1010.00
2018-04-15T08:53:36.254Z,1010.02
2018-04-15T08:54:36.245Z,1010.06
2018-04-15T08:55:36.187Z,1010.07
2018-04-15T08:56:36.150Z,1010.06
2018-04-15T08:57:36.118Z,1010.04
2018-04-15T08:58:36.082Z,1010.13
2018-04-15T08:59:36.047Z,1010.06
2018-04-15T09:00:36.072Z,1010.05
2018-04-15T09:01:35.981Z,1010.07
2018-04-15T09:02:35.947Z,1010.01
2018-04-15T09:03:35.909Z,1009.99
2018-04-15T09:04:35.871Z,1010.01
2018-04-15T09:05:35.834Z,1010.03
2018-04-15T09:06:35.805Z,1009.98
2018-04-15T09:07:35.764Z,1009.98
2018-04-15T09:08:35.730Z,1009.99
2018-04-15T09:09:35.699Z,1009.98
2018-04-15T09:10:35.662Z,1009.99
2018-04-15T09:11:35.625Z,1010.00
2018-04-15T09:12:35.596Z,1010.02
2018-04-15T09:13:35.566Z,1009.97
2018-04-15T09:14:35.524Z,1009.98
2018-04-15T09:15:35.489Z,1009.97
2018-04-15T09:16:35.453Z,1009.96
2018-04-15T09:17:35.415Z,1009.91
2018-04-15T09:18:35.384Z,1009.86
2018-04-15T09:19:35.352Z,1009.86
2018-04-15T09:20:35.311Z,1009.83
2018-04-15T09:21:35.284Z,1009.81
2018-04-15T09:22:35.242Z,1009.83
2018-04-15T09:23:35.226Z,1009.80
2018-04-15T09:24:35.172Z,1009.79
2018-04-15T09:25:35.139Z,1009.79
2018-04-15T09:26:35.110Z,1009.81
2018-04-15T09:27:35.070Z,1009.78
2018-04-15T09:28:35.036Z,1009.76
2018-04-15T09:29:35.027Z,1009.78
2018-04-15T09:30:34.967Z,1009.74
2018-04-15T09:31:35.021Z,1009.73
2018-04-15T09:32:34.898Z,1009.75
2018-04-15T09:33:34.860Z,1009.77
2018-04-15T09:34:34.827Z,1009.77
2018-04-15T09:35:34.850Z,1009.79
2018-04-15T09:36:34.767Z,1009.82
2018-04-15T09:37:34.723Z,1009.81
2018-04-15T09:38:34.688Z,1009.80
2018-04-15T09:39:34.653Z,1009.73
2018-04-15T09:40:34.630Z,1009.79
2018-04-15T09:41:34.590Z,1009.74
2018-04-15T09:42:34.549Z,1009.69
2018-04-15T09:43:34.515Z,1009.68
2018-04-15T09:44:34.478Z,1009.66
2018-04-15T09:45:34.452Z,1009.68
2018-04-15T09:46:34.415Z,1009.66
2018-04-15T09:47:34.374Z,1009.67
2018-04-15T09:48:34.343Z,1009.68
2018-04-15T09:49:34.311Z,1009.66
2018-04-15T09:50:34.274Z,1009.69
2018-04-15T09:51:34.239Z,1009.72
2018-04-15T09:52:34.226Z,1009.73
2018-04-15T09:53:34.170Z,1009.70
2018-04-15T09:54:34.145Z,1009.69
2018-04-15T09:55:34.110Z,1009.66
2018-04-15T09:56:34.064Z,1009.67
2018-04-15T09:57:34.030Z,1009.69
2018-04-15T09:58:33.998Z,1009.71
2018-04-15T09:59:33.961Z,1009.67
2018-04-15T10:00:33.928Z,1009.69
2018-04-15T10:01:33.890Z,1009.69
2018-04-15T10:02:33.856Z,1009.67
2018-04-15T10:03:33.826Z,1009.66
2018-04-15T10:04:33.788Z,1009.63
2018-04-15T10:05:33.750Z,1009.62
2018-04-15T10:06:33.718Z,1009.63
2018-04-15T10:07:33.684Z,1009.59
2018-04-15T10:08:33.646Z,1009.57
2018-04-15T10:09:33.620Z,1009.53
2018-04-15T10:10:33.581Z,1009.63
2018-04-15T10:11:33.545Z,1009.58
2018-04-15T10:12:33.523Z,1009.55
2018-04-15T10:13:33.482Z,1009.56
2018-04-15T10:14:33.444Z,1009.51
2018-04-15T10:15:33.409Z,1009.42
2018-04-15T10:16:33.376Z,1009.44
2018-04-15T10:17:33.340Z,1009.40
2018-04-15T10:18:33.308Z,1009.44
2018-04-15T10:19:33.271Z,1009.40
2018-04-15T10:20:33.234Z,1009.41
2018-04-15T10:21:33.203Z,1009.42
2018-04-15T10:22:33.167Z,1009.43
2018-04-15T10:23:33.134Z,1009.39
2018-04-15T10:24:33.100Z,1009.33
2018-04-15T10:25:33.061Z,1009.34
2018-04-15T10:26:33.029Z,1009.32
2018-04-15T10:27:32.995Z,1009.34
2018-04-15T10:28:32.962Z,1009.37
2018-04-15T10:29:32.931Z,1009.34
2018-04-15T10:30:32.891Z,1009.36
2018-04-15T10:31:32.857Z,1009.33
2018-04-15T10:32:32.823Z,1009.35
2018-04-15T10:33:32.789Z,1009.32
2018-04-15T10:34:32.754Z,1009.29
2018-04-15T10:35:32.719Z,1009.30
2018-04-15T10:36:32.683Z,1009.27
2018-04-15T10:37:32.650Z,1009.28
2018-04-15T10:38:32.617Z,1009.28
2018-04-15T10:39:32.582Z,1009.26
2018-04-15T10:40:32.546Z,1009.25
2018-04-15T10:41:32.513Z,1009.15
2018-04-15T10:42:32.480Z,1009.25
2018-04-15T10:43:32.445Z,1009.26
2018-04-15T10:44:32.409Z,1009.25
2018-04-15T10:45:32.375Z,1009.25
2018-04-15T10:46:32.341Z,1009.22
2018-04-15T10:47:32.306Z,1009.21
2018-04-15T10:48:32.271Z,1009.22
2018-04-15T10:49:32.237Z,1009.26
2018-04-15T10:50:32.202Z,1009.18
2018-04-15T10:51:32.168Z,1009.16
2018-04-15T10:52:32.136Z,1009.18
2018-04-15T10:53:32.102Z,1009.14
2018-04-15T10:54:32.068Z,1009.15
2018-04-15T10:55:32.030Z,1009.12
2018-04-15T10:56:32.002Z,1009.13
2018-04-15T10:57:31.971Z,1009.11
2018-04-15T10:58:31.926Z,1009.06
2018-04-15T10:59:31.937Z,1009.09
2018-04-15T11:00:31.856Z,1009.05
2018-04-15T11:01:31.822Z,1009.04
2018-04-15T11:02:31.795Z,1009.02
2018-04-15T11:03:31.761Z,1008.99
2018-04-15T11:04:31.725Z,1008.99
2018-04-15T11:05:31.695Z,1008.99
2018-04-15T11:06:31.653Z,1008.99
2018-04-15T11:07:31.615Z,1008.98
2018-04-15T11:08:31.579Z,1008.99
2018-04-15T11:09:31.547Z,1009.04
2018-04-15T11:10:31.522Z,1009.02
2018-04-15T11:11:31.477Z,1009.01
2018-04-15T11:12:31.445Z,1009.03
2018-04-15T11:13:31.405Z,1008.99
2018-04-15T11:14:31.370Z,1009.00
2018-04-15T11:15:31.341Z,1009.06
2018-04-15T11:16:31.300Z,1009.04
2018-04-15T11:17:31.266Z,1008.97
2018-04-15T11:18:31.230Z,1009.02
2018-04-15T11:19:31.196Z,1009.05
2018-04-15T11:20:31.165Z,1009.07
2018-04-15T11:21:31.124Z,1009.11
2018-04-15T11:22:31.092Z,1009.09
2018-04-15T11:23:31.059Z,1009.13
2018-04-15T11:24:31.022Z,1009.10
2018-04-15T11:25:30.983Z,1009.08
2018-04-15T11:26:30.950Z,1009.10
2018-04-15T11:27:30.929Z,1009.08
2018-04-15T11:28:30.883Z,1009.06
2018-04-15T11:29:30.844Z,1009.06
2018-04-15T11:30:30.814Z,1009.10
2018-04-15T11:31:30.776Z,1009.11
2018-04-15T11:32:30.765Z,1009.09
2018-04-15T11:33:30.706Z,1009.08
2018-04-15T11:34:30.670Z,1009.10
2018-04-15T11:35:30.633Z,1009.09
2018-04-15T11:36:30.604Z,1009.07
2018-04-15T11:37:30.564Z,1009.05
2018-04-15T11:38:30.532Z,1009.03
2018-04-15T11:39:30.497Z,1008.99
2018-04-15T11:40:30.476Z,1008.94
2018-04-15T11:41:30.426Z,1008.95
2018-04-15T11:42:30.393Z,1008.94
2018-04-15T11:43:30.363Z,1008.95
2018-04-15T11:44:30.323Z,1008.95
2018-04-15T11:45:30.294Z,1008.89
2018-04-15T11:46:30.257Z,1008.87
2018-04-15T11:47:30.229Z,1008.94
2018-04-15T11:48:30.191Z,1008.92
2018-04-15T11:49:30.160Z,1008.89
2018-04-15T11:50:30.125Z,1008.90
2018-04-15T11:51:30.099Z,1008.87
2018-04-15T11:52:30.061Z,1008.88
2018-04-15T11:53:30.020Z,1008.84
2018-04-15T11:54:30.007Z,1008.82
2018-04-15T11:55:29.967Z,1008.84
2018-04-15T11:57:29.888Z,1008.75
2018-04-15T11:58:29.867Z,1008.75
2018-04-15T11:59:29.830Z,1008.77
2018-04-15T12:00:29.786Z,1008.76
2018-04-15T12:01:29.752Z,1008.77
2018-04-15T12:02:29.719Z,1008.77
2018-04-15T12:03:29.687Z,1008.72
2018-04-15T12:04:29.653Z,1008.74
2018-04-15T12:05:29.618Z,1008.74
2018-04-15T12:06:29.583Z,1008.75
2018-04-15T12:07:29.550Z,1008.71